createdAt,value
2023-02-09T00:01:32.839Z,1.50
2023-02-09T00:04:03.549Z,1.20
2023-02-09T00:06:33.620Z,1.20
2023-02-09T00:09:03.316Z,1.40
2023-02-09T00:11:52.074Z,1.65
2023-02-09T00:14:22.476Z,1.48
2023-02-09T00:16:52.816Z,1.45
2023-02-09T00:19:22.524Z,1.65
2023-02-09T00:21:51.307Z,1.27
2023-02-09T00:24:20.157Z,1.40
2023-02-09T00:26:49.739Z,1.38
2023-02-09T00:29:23.162Z,1.20
2023-02-09T00:31:52.681Z,1.20
2023-02-09T00:34:21.519Z,1.50
2023-02-09T00:36:50.525Z,1.73
2023-02-09T00:39:19.490Z,1.20
2023-02-09T00:42:06.776Z,1.30
2023-02-09T00:44:36.810Z,1.15
2023-02-09T00:47:08.238Z,1.00
2023-02-09T00:49:37.717Z,1.30
2023-02-09T00:52:07.471Z,1.60
2023-02-09T00:54:37.945Z,1.80
2023-02-09T00:57:07.182Z,1.27
2023-02-09T00:59:36.928Z,1.20
2023-02-09T01:02:06.068Z,1.30
2023-02-09T01:04:35.205Z,1.05
2023-02-09T01:07:04.195Z,1.42
2023-02-09T01:09:33.534Z,1.23
2023-02-09T01:12:02.422Z,1.20
2023-02-09T01:14:32.283Z,1.23
2023-02-09T01:17:01.179Z,1.23
2023-02-09T01:19:30.525Z,1.30
2023-02-09T01:21:59.465Z,1.15
2023-02-09T01:24:28.384Z,1.33
2023-02-09T01:27:01.957Z,1.38
2023-02-09T01:29:32.980Z,1.38
2023-02-09T01:32:02.299Z,2.38
2023-02-09T01:34:31.250Z,1.27
2023-02-09T01:37:05.102Z,2.83
2023-02-09T01:39:34.180Z,6.68
2023-02-09T01:42:04.345Z,6.25
2023-02-09T01:44:34.195Z,4.38
2023-02-09T01:47:04.424Z,3.03
2023-02-09T01:49:33.307Z,6.60
2023-02-09T01:52:11.197Z,10.88
2023-02-09T01:55:00.009Z,11.00
2023-02-09T01:57:46.335Z,9.15
2023-02-09T02:00:21.010Z,8.63
2023-02-09T02:03:00.040Z,8.85
2023-02-09T02:05:32.559Z,7.10
2023-02-09T02:08:22.252Z,3.95
2023-02-09T02:10:52.503Z,2.92
2023-02-09T02:13:22.095Z,2.65
2023-02-09T02:18:57.912Z,5.57
2023-02-09T02:21:47.397Z,10.02
2023-02-09T02:24:25.162Z,12.35
2023-02-09T02:27:02.476Z,10.65
2023-02-09T02:30:16.770Z,5.65
2023-02-09T02:33:06.678Z,3.70
2023-02-09T02:36:00.634Z,3.70
2023-02-09T02:39:02.010Z,3.47
2023-02-09T02:42:00.162Z,3.10
2023-02-09T02:44:32.912Z,5.88
2023-02-09T02:47:06.685Z,7.70
2023-02-09T02:49:45.896Z,5.53
2023-02-09T02:52:14.935Z,5.97
2023-02-09T02:54:58.411Z,8.38
2023-02-09T02:57:34.405Z,11.35
2023-02-09T03:00:15.519Z,13.88
2023-02-09T03:02:55.103Z,11.23
2023-02-09T03:05:27.721Z,9.52
2023-02-09T03:07:57.666Z,7.03
2023-02-09T03:10:35.705Z,6.97
2023-02-09T03:13:35.317Z,5.82
2023-02-09T03:16:16.328Z,6.72
2023-02-09T03:19:02.759Z,7.43
2023-02-09T03:21:49.334Z,8.07
2023-02-09T03:24:31.988Z,7.97
2023-02-09T03:27:26.109Z,7.35
2023-02-09T03:30:00.463Z,7.47
2023-02-09T03:32:30.067Z,5.75
2023-02-09T03:35:02.588Z,5.03
2023-02-09T03:37:35.235Z,3.70
2023-02-09T03:40:04.168Z,3.72
2023-02-09T03:42:33.080Z,3.90
2023-02-09T03:45:02.173Z,3.47
2023-02-09T03:47:31.595Z,3.17
2023-02-09T03:50:02.328Z,3.58
2023-02-09T03:52:32.285Z,3.65
2023-02-09T03:55:01.213Z,3.33
2023-02-09T03:57:30.639Z,3.55
2023-02-09T04:00:02.442Z,3.00
2023-02-09T04:02:40.689Z,2.92
2023-02-09T04:05:09.751Z,3.85
2023-02-09T04:07:40.926Z,2.78
2023-02-09T04:10:13.860Z,2.63
2023-02-09T04:12:42.714Z,3.08
2023-02-09T04:15:11.924Z,1.90
2023-02-09T04:17:42.190Z,1.92
2023-02-09T04:20:12.381Z,2.35
2023-02-09T04:22:41.168Z,1.98
2023-02-09T04:25:12.424Z,2.13
2023-02-09T04:27:44.450Z,2.13
2023-02-09T04:30:16.510Z,1.70
2023-02-09T04:32:45.327Z,1.92
2023-02-09T04:35:14.171Z,2.58
2023-02-09T04:37:45.782Z,2.30
2023-02-09T04:40:15.404Z,1.90
2023-02-09T04:42:48.479Z,2.50
2023-02-09T04:45:20.691Z,2.97
2023-02-09T04:47:49.684Z,3.22
2023-02-09T04:50:18.557Z,4.95
2023-02-09T04:52:47.505Z,5.00
2023-02-09T04:55:16.265Z,6.60
2023-02-09T04:58:03.269Z,5.80
2023-02-09T05:00:32.183Z,4.10
2023-02-09T05:03:01.033Z,2.78
2023-02-09T05:05:32.405Z,2.40
2023-02-09T05:08:03.111Z,3.33
2023-02-09T05:10:32.179Z,3.60
2023-02-09T05:13:08.741Z,3.10
2023-02-09T05:15:37.799Z,3.85
2023-02-09T05:18:08.477Z,2.83
2023-02-09T05:20:37.483Z,2.72
2023-02-09T05:23:07.249Z,2.20
2023-02-09T05:25:36.273Z,2.67
2023-02-09T05:28:06.028Z,2.20
2023-02-09T05:30:38.389Z,2.55
2023-02-09T05:33:07.433Z,2.45
2023-02-09T05:35:36.382Z,2.60
2023-02-09T05:38:05.231Z,2.35
2023-02-09T05:40:34.072Z,2.38
2023-02-09T05:43:04.305Z,3.10
2023-02-09T05:45:33.395Z,2.65
2023-02-09T05:48:02.323Z,2.05
2023-02-09T05:50:31.132Z,2.50
2023-02-09T05:53:01.433Z,1.98
2023-02-09T05:55:30.785Z,2.45
2023-02-09T05:57:59.579Z,2.17
2023-02-09T06:00:30.629Z,2.03
2023-02-09T06:03:05.575Z,2.00
2023-02-09T06:05:34.617Z,2.05
2023-02-09T06:08:05.181Z,2.05
2023-02-09T06:10:33.976Z,2.40
2023-02-09T06:13:04.425Z,1.85
2023-02-09T06:15:33.471Z,1.95
2023-02-09T06:18:02.264Z,1.80
2023-02-09T06:20:35.378Z,1.83
2023-02-09T06:23:04.875Z,2.42
2023-02-09T06:25:36.851Z,1.92
2023-02-09T06:28:05.726Z,1.92
2023-02-09T06:30:34.414Z,1.80
2023-02-09T06:33:05.277Z,1.67
2023-02-09T06:35:34.157Z,1.63
2023-02-09T06:38:04.068Z,1.90
2023-02-09T06:40:35.851Z,1.98
2023-02-09T06:43:04.867Z,1.83
2023-02-09T06:45:33.720Z,2.13
2023-02-09T06:48:03.568Z,1.70
2023-02-09T06:50:32.472Z,2.00
2023-02-09T06:53:01.841Z,2.20
2023-02-09T06:55:34.541Z,1.77
2023-02-09T06:58:06.650Z,2.00
2023-02-09T07:00:38.005Z,1.80
2023-02-09T07:03:06.840Z,2.38
2023-02-09T07:05:38.731Z,2.00
2023-02-09T07:08:07.637Z,2.30
2023-02-09T07:10:36.974Z,1.90
2023-02-09T07:13:05.786Z,2.03
2023-02-09T07:15:34.657Z,3.05
2023-02-09T07:18:03.450Z,3.33
2023-02-09T07:20:32.327Z,1.85
2023-02-09T07:23:02.341Z,1.63
2023-02-09T07:25:32.105Z,2.13
2023-02-09T07:28:01.303Z,1.75
2023-02-09T07:30:30.268Z,1.95
2023-02-09T07:32:59.140Z,2.42
2023-02-09T07:35:28.191Z,2.17
2023-02-09T07:37:58.140Z,2.45
2023-02-09T07:40:27.054Z,1.83
2023-02-09T07:42:55.825Z,2.30
2023-02-09T07:45:24.642Z,2.33
2023-02-09T07:47:53.376Z,2.03
2023-02-09T07:50:22.349Z,2.13
2023-02-09T07:52:54.891Z,2.20
2023-02-09T07:55:24.080Z,2.30
2023-02-09T07:57:53.861Z,1.90
2023-02-09T08:00:23.284Z,1.90
2023-02-09T08:02:52.223Z,2.05
2023-02-09T08:05:26.720Z,1.67
2023-02-09T08:07:56.792Z,2.13
2023-02-09T08:10:27.045Z,2.20
2023-02-09T08:13:03.111Z,1.90
2023-02-09T08:16:10.721Z,2.33
2023-02-09T08:18:45.113Z,2.28
2023-02-09T08:21:17.330Z,2.30
2023-02-09T08:23:50.120Z,1.95
2023-02-09T08:26:19.509Z,2.20
2023-02-09T08:28:48.583Z,2.30
2023-02-09T08:31:24.592Z,1.98
2023-02-09T08:33:53.477Z,2.25
2023-02-09T08:36:22.437Z,1.88
2023-02-09T08:38:51.312Z,2.20
2023-02-09T08:41:20.576Z,1.73
2023-02-09T08:43:50.928Z,1.90
2023-02-09T08:46:20.599Z,2.13
2023-02-09T08:48:49.528Z,1.67
2023-02-09T08:51:18.520Z,1.98
2023-02-09T08:53:52.845Z,1.90
2023-02-09T08:56:23.885Z,2.05
2023-02-09T08:58:54.845Z,2.40
2023-02-09T09:01:23.684Z,2.28
2023-02-09T09:03:52.667Z,1.77
2023-02-09T09:06:22.984Z,2.20
2023-02-09T09:08:56.761Z,1.85
2023-02-09T09:11:26.022Z,2.25
2023-02-09T09:13:54.998Z,1.98
2023-02-09T09:16:24.242Z,2.10
2023-02-09T09:18:56.158Z,2.03
2023-02-09T09:21:25.472Z,1.90
2023-02-09T09:23:54.274Z,1.90
2023-02-09T09:26:23.533Z,1.75
2023-02-09T09:28:53.000Z,1.85
2023-02-09T09:31:22.748Z,1.92
2023-02-09T09:33:51.634Z,1.90
2023-02-09T09:36:21.423Z,2.00
2023-02-09T09:38:50.293Z,1.67
2023-02-09T09:41:27.129Z,1.90
2023-02-09T09:43:56.326Z,2.00
2023-02-09T09:46:39.322Z,1.88
2023-02-09T09:49:20.995Z,1.90
2023-02-09T09:51:55.413Z,1.85
2023-02-09T09:54:31.363Z,1.80
2023-02-09T09:57:00.864Z,1.27
2023-02-09T09:59:35.695Z,1.60
2023-02-09T10:02:18.993Z,1.50
2023-02-09T10:04:49.454Z,1.70
2023-02-09T10:07:23.734Z,1.48
2023-02-09T10:09:58.307Z,1.40
2023-02-09T10:12:40.519Z,1.58
2023-02-09T10:15:30.404Z,1.50
2023-02-09T10:18:00.392Z,1.80
2023-02-09T10:20:43.801Z,2.10
2023-02-09T10:23:59.703Z,1.80
2023-02-09T10:26:33.941Z,1.95
2023-02-09T10:29:12.082Z,1.70
2023-02-09T10:32:04.051Z,2.08
2023-02-09T10:34:38.962Z,2.00
2023-02-09T10:37:26.827Z,1.88
2023-02-09T10:40:16.229Z,1.83
2023-02-09T10:43:05.689Z,2.10
2023-02-09T10:45:45.019Z,1.80
2023-02-09T10:48:14.072Z,2.10
2023-02-09T10:51:02.078Z,1.80
2023-02-09T10:53:36.126Z,2.20
2023-02-09T10:56:17.289Z,2.00
2023-02-09T10:58:53.930Z,2.00
2023-02-09T11:01:29.798Z,1.80
2023-02-09T11:04:03.414Z,1.67
2023-02-09T11:06:47.673Z,2.00
2023-02-09T11:09:24.596Z,2.60
2023-02-09T11:11:54.082Z,1.88
2023-02-09T11:14:23.688Z,1.88
2023-02-09T11:17:10.957Z,2.00
2023-02-09T11:23:03.909Z,2.13
2023-02-09T11:25:49.108Z,2.22
2023-02-09T11:28:49.505Z,2.30
2023-02-09T11:31:42.324Z,2.00
2023-02-09T11:34:32.877Z,2.10
2023-02-09T11:37:10.539Z,1.70
2023-02-09T11:39:48.336Z,1.90
2023-02-09T11:42:45.845Z,1.90
2023-02-09T11:45:23.748Z,2.22
2023-02-09T11:48:05.456Z,2.20
2023-02-09T11:51:02.186Z,2.10
2023-02-09T11:53:31.551Z,1.77
2023-02-09T11:56:06.197Z,1.92
2023-02-09T11:58:47.574Z,1.60
2023-02-09T12:01:25.610Z,1.90
2023-02-09T12:04:06.723Z,2.13
2023-02-09T12:06:42.583Z,2.20
2023-02-09T12:09:38.964Z,1.83
2023-02-09T12:12:28.684Z,1.90
2023-02-09T12:14:57.732Z,2.45
2023-02-09T12:17:53.237Z,2.00
2023-02-09T12:23:17.132Z,2.10
2023-02-09T12:26:01.280Z,2.20
2023-02-09T12:28:33.521Z,1.60
2023-02-09T12:31:09.540Z,1.85
2023-02-09T12:33:58.698Z,2.25
2023-02-09T12:36:33.749Z,1.70
2023-02-09T12:39:07.170Z,1.45
2023-02-09T12:41:36.110Z,1.60
2023-02-09T12:44:11.593Z,2.30
2023-02-09T12:46:47.401Z,2.10
2023-02-09T12:49:16.510Z,1.70
2023-02-09T12:51:56.570Z,1.60
2023-02-09T12:54:56.203Z,1.95
2023-02-09T12:57:26.348Z,1.10
2023-02-09T12:59:59.968Z,1.00
2023-02-09T13:02:40.613Z,0.80
2023-02-09T13:05:15.461Z,0.80
2023-02-09T13:07:53.362Z,0.93
2023-02-09T13:10:37.337Z,1.92
2023-02-09T13:13:12.250Z,0.77
2023-02-09T13:16:01.768Z,0.88
2023-02-09T13:18:47.472Z,0.70
2023-02-09T13:21:52.919Z,0.82
2023-02-09T13:24:45.968Z,1.00
2023-02-09T13:27:32.729Z,1.20
2023-02-09T13:30:04.444Z,1.33
2023-02-09T13:33:02.860Z,1.45
2023-02-09T13:35:43.537Z,1.80
2023-02-09T13:38:22.673Z,1.50
2023-02-09T13:40:52.417Z,1.50
2023-02-09T13:43:36.242Z,1.13
2023-02-09T13:46:06.147Z,1.20
2023-02-09T13:48:40.130Z,1.20
2023-02-09T13:51:17.743Z,1.20
2023-02-09T13:54:04.494Z,1.50
2023-02-09T13:56:35.774Z,1.40
2023-02-09T13:59:05.124Z,1.42
2023-02-09T14:01:36.832Z,1.20
2023-02-09T14:04:22.509Z,1.23
2023-02-09T14:07:01.375Z,1.20
2023-02-09T14:09:39.962Z,1.45
2023-02-09T14:12:17.150Z,1.30
2023-02-09T14:15:13.664Z,1.10
2023-02-09T14:17:54.012Z,0.80
2023-02-09T14:20:26.268Z,0.70
2023-02-09T14:23:02.608Z,0.80
2023-02-09T14:25:32.686Z,0.80
2023-02-09T14:28:01.668Z,0.85
2023-02-09T14:30:33.380Z,1.42
2023-02-09T14:33:04.145Z,0.80
2023-02-09T14:35:39.777Z,1.10
2023-02-09T14:38:38.279Z,0.90
2023-02-09T14:41:23.206Z,0.73
2023-02-09T14:44:23.579Z,1.00
2023-02-09T14:46:57.713Z,0.73
2023-02-09T14:52:14.251Z,0.80
2023-02-09T14:54:49.430Z,0.80
2023-02-09T14:57:18.375Z,0.90
2023-02-09T14:59:47.465Z,1.20
2023-02-09T15:02:20.155Z,0.70
2023-02-09T15:04:49.212Z,0.75
2023-02-09T15:07:23.165Z,0.90
2023-02-09T15:09:52.136Z,0.70
2023-02-09T15:12:30.161Z,0.80
2023-02-09T15:15:02.466Z,0.60
2023-02-09T15:17:32.069Z,0.85
2023-02-09T15:20:00.955Z,0.80
2023-02-09T15:22:29.697Z,0.88
2023-02-09T15:24:58.514Z,0.90
2023-02-09T15:27:35.637Z,0.88
2023-02-09T15:30:14.099Z,0.75
2023-02-09T15:32:42.923Z,0.77
2023-02-09T15:35:18.861Z,1.05
2023-02-09T15:37:50.494Z,0.80
2023-02-09T15:40:47.899Z,0.85
2023-02-09T15:46:25.237Z,0.80
2023-02-09T15:48:54.303Z,0.88
2023-02-09T15:51:29.589Z,0.90
2023-02-09T15:54:01.411Z,0.95
2023-02-09T15:56:33.884Z,0.70
2023-02-09T15:59:04.302Z,0.90
2023-02-09T16:01:35.829Z,0.80
2023-02-09T16:04:34.560Z,1.08
2023-02-09T16:07:07.257Z,2.92
2023-02-09T16:09:38.705Z,1.13
2023-02-09T16:12:11.276Z,1.10
2023-02-09T16:14:43.232Z,1.27
2023-02-09T16:17:12.153Z,0.80
2023-02-09T16:19:40.892Z,1.20
2023-02-09T16:22:09.667Z,1.13
2023-02-09T16:24:45.970Z,1.52
2023-02-09T16:27:25.036Z,1.08
2023-02-09T16:29:53.823Z,1.20
2023-02-09T16:32:25.102Z,1.38
2023-02-09T16:34:55.049Z,0.98
2023-02-09T16:37:32.277Z,1.30
2023-02-09T16:40:02.983Z,1.60
2023-02-09T16:42:32.500Z,0.90
2023-02-09T16:45:01.924Z,1.10
2023-02-09T16:47:34.186Z,0.98
2023-02-09T16:50:21.294Z,1.02
2023-02-09T16:52:54.406Z,0.80
2023-02-09T16:55:30.458Z,1.17
2023-02-09T16:58:01.565Z,1.30
2023-02-09T17:00:33.994Z,1.20
2023-02-09T17:03:20.676Z,1.02
2023-02-09T17:05:50.807Z,1.00
2023-02-09T17:08:26.394Z,1.30
2023-02-09T17:10:57.382Z,1.13
2023-02-09T17:13:28.918Z,1.60
2023-02-09T17:16:09.837Z,1.27
2023-02-09T17:18:43.058Z,1.35
2023-02-09T17:21:32.162Z,1.27
2023-02-09T17:24:06.008Z,1.10
2023-02-09T17:26:38.501Z,1.25
2023-02-09T17:29:08.054Z,1.30
2023-02-09T17:31:51.879Z,1.60
2023-02-09T17:34:28.714Z,2.00
2023-02-09T17:36:58.900Z,1.67
2023-02-09T17:39:29.911Z,1.38
2023-02-09T17:42:00.408Z,1.58
2023-02-09T17:44:45.613Z,1.48
2023-02-09T17:47:21.384Z,1.45
2023-02-09T17:49:50.372Z,1.70
2023-02-09T17:52:21.130Z,1.73
2023-02-09T17:54:51.637Z,1.90
2023-02-09T17:57:21.741Z,1.63
2023-02-09T17:59:50.606Z,1.63
2023-02-09T18:02:23.330Z,1.73
2023-02-09T18:04:52.365Z,1.45
2023-02-09T18:07:29.648Z,1.67
2023-02-09T18:10:01.599Z,1.88
2023-02-09T18:12:32.480Z,1.60
2023-02-09T18:15:24.939Z,1.65
2023-02-09T18:17:57.854Z,1.70
2023-02-09T18:20:35.002Z,1.70
2023-02-09T18:23:05.221Z,1.85
2023-02-09T18:25:39.400Z,1.80
2023-02-09T18:28:09.684Z,2.95
2023-02-09T18:30:40.873Z,2.28
2023-02-09T18:33:11.059Z,2.40
2023-02-09T18:35:45.443Z,2.10
2023-02-09T18:38:16.556Z,1.90
2023-02-09T18:40:45.805Z,1.70
2023-02-09T18:43:17.654Z,1.40
2023-02-09T18:45:47.084Z,1.48
2023-02-09T18:48:16.949Z,1.40
2023-02-09T18:50:46.437Z,2.05
2023-02-09T18:53:16.858Z,1.60
2023-02-09T18:55:53.681Z,1.20
2023-02-09T18:58:23.946Z,1.40
2023-02-09T19:00:53.517Z,1.30
2023-02-09T19:03:25.202Z,1.13
2023-02-09T19:05:54.037Z,1.20
2023-02-09T19:08:22.754Z,1.10
2023-02-09T19:10:51.619Z,1.20
2023-02-09T19:13:20.345Z,1.20
2023-02-09T19:15:49.492Z,0.90
2023-02-09T19:18:18.723Z,0.90
2023-02-09T19:20:48.782Z,1.23
2023-02-09T19:23:18.074Z,1.20
2023-02-09T19:25:48.171Z,1.70
2023-02-09T19:28:20.297Z,1.00
2023-02-09T19:30:49.938Z,1.27
2023-02-09T19:33:19.214Z,1.92
2023-02-09T19:35:55.866Z,1.50
2023-02-09T19:41:09.733Z,1.73
2023-02-09T19:43:40.684Z,3.30
2023-02-09T19:46:12.789Z,3.22
2023-02-09T19:48:42.560Z,2.72
2023-02-09T19:51:12.508Z,1.40
2023-02-09T19:53:41.456Z,1.20
2023-02-09T19:56:20.122Z,1.30
2023-02-09T19:58:49.010Z,1.30
2023-02-09T20:01:19.247Z,1.50
2023-02-09T20:03:53.012Z,1.83
2023-02-09T20:06:21.928Z,1.50
2023-02-09T20:08:51.308Z,1.50
2023-02-09T20:11:21.952Z,1.77
2023-02-09T20:13:52.646Z,1.63
2023-02-09T20:16:27.929Z,1.63
2023-02-09T20:18:57.040Z,1.42
2023-02-09T20:21:26.610Z,1.25
2023-02-09T20:23:56.659Z,1.45
2023-02-09T20:26:30.131Z,2.00
2023-02-09T20:28:59.409Z,1.70
2023-02-09T20:31:33.249Z,2.05
2023-02-09T20:34:05.791Z,2.00
2023-02-09T20:36:36.714Z,1.70
2023-02-09T20:39:07.158Z,1.88
2023-02-09T20:41:35.916Z,2.00
2023-02-09T20:44:23.411Z,1.98
2023-02-09T20:46:58.186Z,2.38
2023-02-09T20:49:32.082Z,2.10
2023-02-09T20:52:00.943Z,1.80
2023-02-09T20:54:32.543Z,2.50
2023-02-09T20:57:02.067Z,2.17
2023-02-09T20:59:31.851Z,2.42
2023-02-09T21:02:00.936Z,2.47
2023-02-09T21:04:30.868Z,1.80
2023-02-09T21:07:01.153Z,2.25
2023-02-09T21:09:30.006Z,2.15
2023-02-09T21:11:58.761Z,2.20
2023-02-09T21:14:41.864Z,2.13
2023-02-09T21:17:12.350Z,2.67
2023-02-09T21:19:41.936Z,2.28
2023-02-09T21:22:10.788Z,1.90
2023-02-09T21:24:39.922Z,2.47
2023-02-09T21:27:11.978Z,2.55
2023-02-09T21:29:44.185Z,2.50
2023-02-09T21:32:16.884Z,2.47
2023-02-09T21:34:45.788Z,2.17
2023-02-09T21:37:14.816Z,2.38
2023-02-09T21:39:52.839Z,2.38
2023-02-09T21:42:27.825Z,3.10
2023-02-09T21:44:57.307Z,2.70
2023-02-09T21:47:38.380Z,1.95
2023-02-09T21:50:09.921Z,2.63
2023-02-09T21:52:38.880Z,2.35
2023-02-09T21:55:09.234Z,1.90
2023-02-09T21:57:42.002Z,1.92
2023-02-09T22:00:13.041Z,1.83
2023-02-09T22:02:42.136Z,1.98
2023-02-09T22:05:16.717Z,1.77
2023-02-09T22:07:50.453Z,2.13
2023-02-09T22:10:19.351Z,1.42
2023-02-09T22:12:48.272Z,2.13
2023-02-09T22:15:20.161Z,1.77
2023-02-09T22:17:49.961Z,1.33
2023-02-09T22:20:18.866Z,1.45
2023-02-09T22:22:50.244Z,1.10
2023-02-09T22:25:19.212Z,1.60
2023-02-09T22:27:48.743Z,2.03
2023-02-09T22:30:17.772Z,1.92
2023-02-09T22:32:46.537Z,1.40
2023-02-09T22:35:15.423Z,1.42
2023-02-09T22:37:44.343Z,1.00
2023-02-09T22:40:15.838Z,1.45
2023-02-09T22:42:44.847Z,1.30
2023-02-09T22:45:15.468Z,1.13
2023-02-09T22:47:44.259Z,1.05
2023-02-09T22:50:13.322Z,1.45
2023-02-09T22:52:42.170Z,1.20
2023-02-09T22:55:12.014Z,1.20
2023-02-09T22:57:40.923Z,1.05
2023-02-09T23:00:12.885Z,0.90
2023-02-09T23:02:41.725Z,1.00
2023-02-09T23:05:10.452Z,0.85
2023-02-09T23:07:43.637Z,0.77
2023-02-09T23:10:14.503Z,0.40
2023-02-09T23:12:43.417Z,0.80
2023-02-09T23:15:12.337Z,0.60
2023-02-09T23:17:42.200Z,0.60
2023-02-09T23:20:11.401Z,0.70
2023-02-09T23:22:40.331Z,0.47
2023-02-09T23:25:11.467Z,0.85
2023-02-09T23:27:40.474Z,0.50
2023-02-09T23:30:10.518Z,0.65
2023-02-09T23:32:39.273Z,0.60
2023-02-09T23:35:08.735Z,0.75
2023-02-09T23:37:38.387Z,0.65
2023-02-09T23:40:07.781Z,0.77
2023-02-09T23:42:36.544Z,3.42
2023-02-09T23:45:07.697Z,0.40
2023-02-09T23:47:37.556Z,0.47
2023-02-09T23:50:09.048Z,0.63
2023-02-09T23:52:38.231Z,0.65
2023-02-09T23:55:07.614Z,0.60
2023-02-09T23:57:36.648Z,0.70
